Charlestown, MA

8:53 PM EST on December 24, 2014 (GMT -0500)
East Milton | Change Station
CLOSE
Current Station
Airport
Location: East Milton,
Elevation: 630 ft
Nearby Weather Stations
Active Advisory: Areal Flood Watch

Elev 630 ft 42.21 °N, 71.11 °W | Updated 59 minutes ago

Rain
Rain
49 °F
Feels Like 49 °F
N
15
Wind Variable Wind from South
Gusts 23 mph

Today
High -- | Low -- °F
--% Chance of Precip.
Yesterday
High -- | Low -- °F
Precip. -- in
7:11 AM 4:16 PM
Waxing Crescent, 12% visible
Pressure 29.73 in
Visibility -9999.0 miles
Clouds
Dew Point 49 °F
Humidity 100%
Rainfall 0.55 in
Snow Depth Not available.
UV Not available.
Pollen .10 out of 12
Air Quality Not available.
Flu Activity Not available.
METAR KMQE 250054Z AUTO 19013G20KT 09/09 A2969 RMK AO1 SLP068 P0002 T00940094

More Conditions Fewer Conditions

Pressure 29.73 in
Visibility -9999.0 miles
Clouds
Dew Point 49 °F
Humidity 100%
Rainfall 0.55 in
Snow Depth Not available.
UV Not available.
Pollen .10 out of 12
Air Quality Not available.
Flu Activity Not available.
METAR KMQE 250054Z AUTO 19013G20KT 09/09 A2969 RMK AO1 SLP068 P0002 T00940094

More Conditions Fewer Conditions

10-Day Weather Forecast

Almanac

Astronomy

Dec. 24, 2014 Rise Set
Actual Time
Civil Twilight
Nautical Twilight
Astronomical Twilight
Moon
Length of Visible Light
Length of Day
Tomorrow will be .
, % of the Moon is Illuminated

Today's Extremes

State Highs State Lows

Community

WunderPhotos

Upload Photos

1,780,208 photos uploaded!

WunderBlogs® & News

Nearby

Air Quality

  Air Quality AQ Index Pollutant
Not available.

Snow Depth

Station Depth Elevation

Earthquake Activity

City Distance Mag. Time & Date
Minimum magnitude displayed is 2.5.

Coastal Water Temperatures

Place Temperature

Nearby Weather Stations